createdAt,value
2018-02-23T00:00:59.964Z,0
2018-02-23T00:01:59.919Z,0
2018-02-23T00:02:59.893Z,0
2018-02-23T00:03:59.857Z,0
2018-02-23T00:04:59.817Z,0
2018-02-23T00:05:59.533Z,0
2018-02-23T00:06:59.503Z,0
2018-02-23T00:07:59.712Z,0
2018-02-23T00:08:59.679Z,0
2018-02-23T00:09:59.157Z,0
2018-02-23T00:10:59.620Z,0
2018-02-23T00:11:59.325Z,0
2018-02-23T00:12:59.288Z,0
2018-02-23T00:13:59.259Z,0
2018-02-23T00:14:59.471Z,0
2018-02-23T00:15:59.431Z,0
2018-02-23T00:16:59.398Z,0
2018-02-23T00:17:59.117Z,0
2018-02-23T00:18:58.834Z,0
2018-02-23T00:19:59.292Z,0
2018-02-23T00:20:58.762Z,0
2018-02-23T00:21:58.731Z,0
2018-02-23T00:22:58.936Z,0
2018-02-23T00:23:58.910Z,0
2018-02-23T00:24:58.873Z,0
2018-02-23T00:25:58.587Z,0
2018-02-23T00:26:58.550Z,0
2018-02-23T00:27:59.011Z,0
2018-02-23T00:28:58.235Z,0
2018-02-23T00:29:58.692Z,0
2018-02-23T00:30:58.910Z,0
2018-02-23T00:31:58.874Z,0
2018-02-23T00:32:58.843Z,0
2018-02-23T00:33:58.812Z,0
2018-02-23T00:34:58.522Z,0
2018-02-23T00:35:58.735Z,0
2018-02-23T00:36:58.702Z,0
2018-02-23T00:37:58.414Z,0
2018-02-23T00:38:58.634Z,0
2018-02-23T00:39:58.594Z,0
2018-02-23T00:40:58.556Z,0
2018-02-23T00:41:58.518Z,0
2018-02-23T00:42:58.238Z,0
2018-02-23T00:43:58.452Z,0
2018-02-23T00:44:58.422Z,0
2018-02-23T00:45:58.390Z,0
2018-02-23T00:46:58.098Z,0
2018-02-23T00:47:58.313Z,0
2018-02-23T00:48:58.278Z,0
2018-02-23T00:49:58.241Z,0
2018-02-23T00:50:57.712Z,0
2018-02-23T00:51:58.168Z,0
2018-02-23T00:52:57.890Z,0
2018-02-23T00:53:58.104Z,0
2018-02-23T00:54:58.064Z,0
2018-02-23T00:55:58.033Z,0
2018-02-23T00:56:57.999Z,0
2018-02-23T00:57:57.714Z,0
2018-02-23T00:58:57.922Z,0
2018-02-23T00:59:57.891Z,0
2018-02-23T01:00:57.605Z,0
2018-02-23T01:01:57.819Z,0
2018-02-23T01:02:57.533Z,0
2018-02-23T01:03:57.745Z,0
2018-02-23T01:04:57.713Z,0
2018-02-23T01:05:56.935Z,0
2018-02-23T01:06:57.391Z,0
2018-02-23T01:07:57.612Z,0
2018-02-23T01:08:57.574Z,0
2018-02-23T01:09:57.576Z,0
2018-02-23T01:10:57.513Z,0
2018-02-23T01:11:57.477Z,0
2018-02-23T01:12:57.427Z,0
2018-02-23T01:13:57.423Z,0
2018-02-23T01:14:57.116Z,0
2018-02-23T01:15:57.327Z,0
2018-02-23T01:16:57.293Z,0
2018-02-23T01:17:57.261Z,0
2018-02-23T01:18:56.977Z,0
2018-02-23T01:19:56.939Z,0
2018-02-23T01:20:57.151Z,0
2018-02-23T01:21:57.126Z,0
2018-02-23T01:22:57.082Z,0
2018-02-23T01:23:57.040Z,0
2018-02-23T01:24:57.017Z,0
2018-02-23T01:25:56.476Z,0
2018-02-23T01:26:56.692Z,0
2018-02-23T01:27:56.904Z,0
2018-02-23T01:28:56.871Z,0
2018-02-23T01:29:56.840Z,0
2018-02-23T01:30:56.798Z,0
2018-02-23T01:31:56.518Z,0
2018-02-23T01:32:56.478Z,0
2018-02-23T01:33:56.690Z,0
2018-02-23T01:34:56.404Z,0
2018-02-23T01:35:56.617Z,0
2018-02-23T01:36:56.336Z,0
2018-02-23T01:37:56.312Z,0
2018-02-23T01:38:56.524Z,0
2018-02-23T01:39:56.491Z,0
2018-02-23T01:40:56.202Z,0
2018-02-23T01:41:56.410Z,0
2018-02-23T01:42:56.374Z,0
2018-02-23T01:43:56.342Z,0
2018-02-23T01:44:56.302Z,0
2018-02-23T01:45:56.271Z,0
2018-02-23T01:46:55.991Z,0
2018-02-23T01:47:56.202Z,0
2018-02-23T01:48:56.166Z,0
2018-02-23T01:49:56.130Z,0
2018-02-23T01:50:56.094Z,0
2018-02-23T01:51:56.066Z,0
2018-02-23T01:52:55.777Z,0
2018-02-23T01:53:55.999Z,0
2018-02-23T01:54:56.062Z,0
2018-02-23T01:55:55.930Z,0
2018-02-23T01:56:55.886Z,0
2018-02-23T01:57:55.600Z,0
2018-02-23T01:58:55.814Z,0
2018-02-23T01:59:55.534Z,0
2018-02-23T02:00:55.740Z,0
2018-02-23T02:01:55.462Z,0
2018-02-23T02:02:55.680Z,0
2018-02-23T02:03:55.387Z,0
2018-02-23T02:04:55.361Z,0
2018-02-23T02:05:55.580Z,0
2018-02-23T02:06:55.538Z,0
2018-02-23T02:07:55.500Z,0
2018-02-23T02:08:55.213Z,0
2018-02-23T02:09:55.433Z,0
2018-02-23T02:10:55.396Z,0
2018-02-23T02:11:55.109Z,0
2018-02-23T02:12:55.073Z,0
2018-02-23T02:13:55.286Z,0
2018-02-23T02:14:55.250Z,0
2018-02-23T02:15:55.215Z,0
2018-02-23T02:16:54.932Z,0
2018-02-23T02:17:54.892Z,0
2018-02-23T02:18:54.868Z,0
2018-02-23T02:19:55.123Z,0
2018-02-23T02:20:55.039Z,0
2018-02-23T02:21:55.002Z,0
2018-02-23T02:22:54.721Z,0
2018-02-23T02:23:54.683Z,0
2018-02-23T02:24:54.917Z,0
2018-02-23T02:25:54.365Z,0
2018-02-23T02:26:54.825Z,0
2018-02-23T02:27:54.793Z,0
2018-02-23T02:28:54.756Z,0
2018-02-23T02:29:54.725Z,0
2018-02-23T02:30:54.693Z,0
2018-02-23T02:31:54.657Z,0
2018-02-23T02:32:54.632Z,0
2018-02-23T02:33:54.591Z,0
2018-02-23T02:34:54.545Z,0
2018-02-23T02:35:54.518Z,0
2018-02-23T02:36:54.480Z,0
2018-02-23T02:37:54.442Z,0
2018-02-23T02:38:54.412Z,0
2018-02-23T02:39:54.383Z,0
2018-02-23T02:40:54.353Z,0
2018-02-23T02:41:54.304Z,0
2018-02-23T02:42:54.022Z,0
2018-02-23T02:43:54.230Z,0
2018-02-23T02:44:54.245Z,0
2018-02-23T02:45:54.180Z,0
2018-02-23T02:46:54.135Z,0
2018-02-23T02:47:54.094Z,0
2018-02-23T02:48:54.070Z,0
2018-02-23T02:49:54.136Z,0
2018-02-23T02:50:54.016Z,0
2018-02-23T02:51:53.709Z,0
2018-02-23T02:52:53.923Z,0
2018-02-23T02:53:53.895Z,0
2018-02-23T02:54:53.351Z,0
2018-02-23T02:55:53.560Z,0
2018-02-23T02:56:53.527Z,0
2018-02-23T02:57:53.746Z,0
2018-02-23T02:58:53.701Z,0
2018-02-23T02:59:53.675Z,0
2018-02-23T03:00:53.390Z,0
2018-02-23T03:01:53.607Z,0
2018-02-23T03:02:53.317Z,0
2018-02-23T03:03:53.535Z,0
2018-02-23T03:04:53.502Z,0
2018-02-23T03:05:53.460Z,0
2018-02-23T03:06:53.190Z,0
2018-02-23T03:07:53.434Z,0
2018-02-23T03:08:53.133Z,0
2018-02-23T03:09:53.316Z,0
2018-02-23T03:10:53.831Z,0
2018-02-23T03:11:53.244Z,0
2018-02-23T03:12:53.207Z,0
2018-02-23T03:13:52.679Z,0
2018-02-23T03:14:53.136Z,0
2018-02-23T03:15:53.107Z,0
2018-02-23T03:16:52.812Z,0
2018-02-23T03:17:53.027Z,0
2018-02-23T03:18:52.994Z,0
2018-02-23T03:19:52.961Z,0
2018-02-23T03:20:52.928Z,0
2018-02-23T03:21:52.895Z,0
2018-02-23T03:22:52.864Z,0
2018-02-23T03:23:52.830Z,0
2018-02-23T03:24:52.791Z,0
2018-02-23T03:25:52.740Z,0
2018-02-23T03:26:52.795Z,0
2018-02-23T03:27:52.677Z,0
2018-02-23T03:28:52.654Z,0
2018-02-23T03:29:52.611Z,0
2018-02-23T03:30:52.590Z,0
2018-02-23T03:31:52.546Z,0
2018-02-23T03:32:52.507Z,0
2018-02-23T03:33:52.225Z,0
2018-02-23T03:34:52.433Z,0
2018-02-23T03:35:52.401Z,0
2018-02-23T03:36:52.111Z,0
2018-02-23T03:37:52.372Z,0
2018-02-23T03:38:52.041Z,0
2018-02-23T03:39:52.260Z,0
2018-02-23T03:40:52.220Z,0
2018-02-23T03:41:52.190Z,0
2018-02-23T03:42:52.150Z,0
2018-02-23T03:43:52.110Z,0
2018-02-23T03:44:52.068Z,0
2018-02-23T03:45:52.047Z,0
2018-02-23T03:46:52.000Z,0
2018-02-23T03:47:51.967Z,0
2018-02-23T03:48:51.940Z,0
2018-02-23T03:49:51.904Z,0
2018-02-23T03:50:51.880Z,0
2018-02-23T03:51:51.083Z,0
2018-02-23T03:52:51.800Z,0
2018-02-23T03:53:51.512Z,0
2018-02-23T03:54:51.723Z,0
2018-02-23T03:55:51.440Z,0
2018-02-23T03:56:51.158Z,0
2018-02-23T03:57:51.372Z,0
2018-02-23T03:58:51.329Z,0
2018-02-23T03:59:51.545Z,0
2018-02-23T04:00:51.518Z,0
2018-02-23T04:01:50.977Z,0
2018-02-23T04:02:51.444Z,0
2018-02-23T04:03:51.403Z,0
2018-02-23T04:04:51.411Z,0
2018-02-23T04:05:51.332Z,0
2018-02-23T04:06:51.048Z,0
2018-02-23T04:07:51.258Z,0
2018-02-23T04:08:51.276Z,0
2018-02-23T04:09:51.206Z,0
2018-02-23T04:10:51.152Z,0
2018-02-23T04:11:50.869Z,0
2018-02-23T04:12:51.080Z,0
2018-02-23T04:13:50.826Z,0
2018-02-23T04:14:51.011Z,0
2018-02-23T04:15:51.026Z,0
2018-02-23T04:16:50.941Z,0
2018-02-23T04:17:50.905Z,0
2018-02-23T04:18:50.868Z,0
2018-02-23T04:19:50.833Z,0
2018-02-23T04:20:50.801Z,0
2018-02-23T04:21:50.760Z,0
2018-02-23T04:22:50.476Z,0
2018-02-23T04:23:50.198Z,0
2018-02-23T04:24:50.655Z,0
2018-02-23T04:25:50.373Z,0
2018-02-23T04:26:50.589Z,0
2018-02-23T04:27:50.298Z,0
2018-02-23T04:28:50.514Z,0
2018-02-23T04:29:50.476Z,0
2018-02-23T04:30:50.496Z,0
2018-02-23T04:31:50.159Z,0
2018-02-23T04:32:50.374Z,0
2018-02-23T04:33:50.085Z,0
2018-02-23T04:34:50.294Z,0
2018-02-23T04:35:50.021Z,0
2018-02-23T04:36:50.250Z,0
2018-02-23T04:37:50.201Z,0
2018-02-23T04:38:49.906Z,0
2018-02-23T04:39:49.876Z,0
2018-02-23T04:40:50.089Z,0
2018-02-23T04:41:49.947Z,0
2018-02-23T04:42:50.020Z,0
2018-02-23T04:43:49.982Z,0
2018-02-23T04:44:49.696Z,0
2018-02-23T04:45:49.912Z,0
2018-02-23T04:46:49.873Z,0
2018-02-23T04:47:49.590Z,0
2018-02-23T04:48:49.797Z,0
2018-02-23T04:49:49.513Z,0
2018-02-23T04:50:49.479Z,0
2018-02-23T04:51:49.681Z,0
2018-02-23T04:52:49.402Z,0
2018-02-23T04:53:49.616Z,0
2018-02-23T04:54:49.086Z,0
2018-02-23T04:55:49.306Z,0
2018-02-23T04:56:49.358Z,0
2018-02-23T04:57:48.975Z,0
2018-02-23T04:58:49.440Z,0
2018-02-23T04:59:49.401Z,0
2018-02-23T05:00:49.374Z,0
2018-02-23T05:01:49.332Z,0
2018-02-23T05:02:49.300Z,0
2018-02-23T05:03:49.259Z,0
2018-02-23T05:04:49.225Z,0
2018-02-23T05:05:49.198Z,0
2018-02-23T05:06:49.154Z,0
2018-02-23T05:07:48.866Z,0
2018-02-23T05:08:49.078Z,0
2018-02-23T05:09:48.796Z,0
2018-02-23T05:10:49.033Z,0
2018-02-23T05:11:48.734Z,0
2018-02-23T05:12:48.689Z,0
2018-02-23T05:13:48.902Z,0
2018-02-23T05:14:48.369Z,0
2018-02-23T05:15:48.832Z,0
2018-02-23T05:16:48.822Z,0
2018-02-23T05:17:48.524Z,0
2018-02-23T05:18:48.722Z,0
2018-02-23T05:19:48.440Z,0
2018-02-23T05:20:48.660Z,0
2018-02-23T05:21:48.375Z,0
2018-02-23T05:22:48.370Z,0
2018-02-23T05:23:48.056Z,0
2018-02-23T05:24:48.514Z,0
2018-02-23T05:25:48.488Z,0
2018-02-23T05:26:48.453Z,0
2018-02-23T05:27:48.013Z,0
2018-02-23T05:28:48.370Z,0
2018-02-23T05:29:48.443Z,0
2018-02-23T05:30:48.309Z,0
2018-02-23T05:31:48.020Z,0
2018-02-23T05:32:48.226Z,0
2018-02-23T05:33:48.196Z,0
2018-02-23T05:34:48.167Z,0
2018-02-23T05:35:48.127Z,0
2018-02-23T05:36:47.838Z,0
2018-02-23T05:37:48.056Z,0
2018-02-23T05:38:48.017Z,0
2018-02-23T05:39:47.988Z,0
2018-02-23T05:40:47.950Z,0
2018-02-23T05:41:47.928Z,0
2018-02-23T05:42:47.932Z,0
2018-02-23T05:43:47.850Z,0
2018-02-23T05:44:47.802Z,0
2018-02-23T05:45:47.519Z,0
2018-02-23T05:46:47.483Z,0
2018-02-23T05:47:47.705Z,0
2018-02-23T05:48:47.415Z,0
2018-02-23T05:49:47.626Z,0
2018-02-23T05:50:47.684Z,0
2018-02-23T05:51:47.307Z,0
2018-02-23T05:52:47.268Z,0
2018-02-23T05:53:46.986Z,0
2018-02-23T05:54:46.951Z,0
2018-02-23T05:55:47.425Z,0
2018-02-23T05:56:47.126Z,0
2018-02-23T05:57:47.346Z,0
2018-02-23T05:58:47.308Z,0
2018-02-23T05:59:47.320Z,0
2018-02-23T06:00:46.984Z,0
2018-02-23T06:01:47.197Z,0
2018-02-23T06:02:47.160Z,0
2018-02-23T06:03:47.123Z,0
2018-02-23T06:04:46.594Z,0
2018-02-23T06:05:47.059Z,0
2018-02-23T06:06:47.031Z,0
2018-02-23T06:07:46.985Z,0
2018-02-23T06:08:46.953Z,0
2018-02-23T06:09:46.909Z,0
2018-02-23T06:10:46.876Z,0
2018-02-23T06:11:46.839Z,0
2018-02-23T06:12:46.813Z,0
2018-02-23T06:13:46.024Z,0
2018-02-23T06:14:46.241Z,0
2018-02-23T06:15:46.452Z,0
2018-02-23T06:16:46.666Z,5
2018-02-23T06:17:46.132Z,5
2018-02-23T06:18:46.348Z,5
2018-02-23T06:19:46.554Z,5
2018-02-23T06:20:46.272Z,5
2018-02-23T06:21:46.484Z,5
2018-02-23T06:22:46.201Z,10
2018-02-23T06:23:46.165Z,10
2018-02-23T06:24:46.128Z,10
2018-02-23T06:25:46.359Z,10
2018-02-23T06:26:46.060Z,15
2018-02-23T06:27:46.271Z,15
2018-02-23T06:28:46.338Z,15
2018-02-23T06:29:45.948Z,20
2018-02-23T06:30:46.170Z,20
2018-02-23T06:31:45.884Z,20
2018-02-23T06:32:46.100Z,25
2018-02-23T06:33:45.810Z,25
2018-02-23T06:34:46.025Z,30
2018-02-23T06:35:45.740Z,30
2018-02-23T06:36:45.955Z,30
2018-02-23T06:37:45.923Z,35
2018-02-23T06:38:45.882Z,35
2018-02-23T06:39:45.605Z,40
2018-02-23T06:40:45.823Z,40
2018-02-23T06:41:45.785Z,45
2018-02-23T06:42:45.741Z,45
2018-02-23T06:43:45.711Z,50
2018-02-23T06:44:45.804Z,50
2018-02-23T06:45:45.392Z,55
2018-02-23T06:46:45.353Z,55
2018-02-23T06:47:45.567Z,60
2018-02-23T06:48:45.284Z,65
2018-02-23T06:49:45.249Z,65
2018-02-23T06:50:45.461Z,70
2018-02-23T06:51:45.174Z,70
2018-02-23T06:52:45.254Z,75
2018-02-23T06:53:44.856Z,75
2018-02-23T06:54:45.117Z,80
2018-02-23T06:55:45.036Z,85
2018-02-23T06:56:45.041Z,85
2018-02-23T06:57:44.756Z,90
2018-02-23T06:58:45.963Z,90
2018-02-23T06:59:46.085Z,95
2018-02-23T07:00:46.430Z,95
2018-02-23T07:01:46.536Z,100
2018-02-23T07:02:45.035Z,105
2018-02-23T07:03:45.007Z,105
2018-02-23T07:04:45.038Z,110
2018-02-23T07:05:45.194Z,110
2018-02-23T07:06:44.908Z,115
2018-02-23T07:07:44.482Z,115
2018-02-23T07:08:44.829Z,120
2018-02-23T07:09:44.832Z,120
2018-02-23T07:10:44.973Z,125
2018-02-23T07:11:44.725Z,125
2018-02-23T07:12:44.714Z,130
2018-02-23T07:13:44.653Z,130
2018-02-23T07:14:44.376Z,135
2018-02-23T07:15:44.581Z,135
2018-02-23T07:16:44.552Z,140
2018-02-23T07:17:44.527Z,140
2018-02-23T07:18:44.478Z,145
2018-02-23T07:19:44.445Z,145
2018-02-23T07:20:44.413Z,150
2018-02-23T07:21:44.496Z,150
2018-02-23T07:22:44.098Z,155
2018-02-23T07:23:43.813Z,155
2018-02-23T07:24:44.277Z,160
2018-02-23T07:25:43.993Z,160
2018-02-23T07:26:43.955Z,165
2018-02-23T07:27:43.675Z,165
2018-02-23T07:28:44.140Z,170
2018-02-23T07:29:44.101Z,170
2018-02-23T07:30:44.077Z,170
2018-02-23T07:31:43.783Z,175
2018-02-23T07:32:43.750Z,175
2018-02-23T07:33:43.960Z,180
2018-02-23T07:34:43.678Z,180
2018-02-23T07:35:43.899Z,180
2018-02-23T07:36:43.624Z,185
2018-02-23T07:37:43.575Z,185
2018-02-23T07:38:43.543Z,185
2018-02-23T07:39:43.766Z,190
2018-02-23T07:40:43.723Z,190
2018-02-23T07:41:43.692Z,195
2018-02-23T07:42:43.660Z,195
2018-02-23T07:43:43.381Z,195
2018-02-23T07:44:43.091Z,200
2018-02-23T07:45:43.365Z,200
2018-02-23T07:46:43.018Z,200
2018-02-23T07:47:42.985Z,205
2018-02-23T07:48:43.205Z,205
2018-02-23T07:49:43.418Z,210
2018-02-23T07:50:43.380Z,210
2018-02-23T07:51:43.350Z,210
2018-02-23T07:52:43.073Z,215
2018-02-23T07:53:43.317Z,215
2018-02-23T07:54:42.997Z,215
2018-02-23T07:55:42.962Z,215
2018-02-23T07:56:45.352Z,220
2018-02-23T07:57:45.148Z,220
2018-02-23T07:58:45.552Z,220
2018-02-23T07:59:42.834Z,225
2018-02-23T08:00:42.943Z,225
2018-02-23T08:01:43.754Z,225
2018-02-23T08:02:42.477Z,230
2018-02-23T08:03:42.687Z,230
2018-02-23T08:04:42.671Z,230
2018-02-23T08:05:43.077Z,230
2018-02-23T08:06:43.641Z,230
2018-02-23T08:07:42.586Z,230
2018-02-23T08:08:42.672Z,230
2018-02-23T08:09:43.705Z,235
2018-02-23T08:10:42.681Z,235
2018-02-23T08:11:42.419Z,240
2018-02-23T08:12:42.740Z,240
2018-02-23T08:13:42.631Z,240
2018-02-23T08:14:42.335Z,240
2018-02-23T08:15:42.041Z,240
2018-02-23T08:16:42.250Z,245
2018-02-23T08:17:42.463Z,245
2018-02-23T08:18:42.433Z,245
2018-02-23T08:19:42.403Z,245
2018-02-23T08:20:42.147Z,255
2018-02-23T08:21:42.327Z,250
2018-02-23T08:22:42.336Z,250
2018-02-23T08:23:42.262Z,250
2018-02-23T08:24:42.239Z,255
2018-02-23T08:25:41.942Z,255
2018-02-23T08:26:42.276Z,255
2018-02-23T08:27:42.150Z,255
2018-02-23T08:28:41.595Z,255
2018-02-23T08:29:41.562Z,260
2018-02-23T08:30:42.115Z,260
2018-02-23T08:31:41.994Z,260
2018-02-23T08:32:41.762Z,260
2018-02-23T08:33:41.868Z,270
2018-02-23T08:34:41.899Z,265
2018-02-23T08:35:41.877Z,265
2018-02-23T08:36:41.327Z,265
2018-02-23T08:37:41.798Z,265
2018-02-23T08:38:41.511Z,265
2018-02-23T08:39:41.485Z,265
2018-02-23T08:40:41.702Z,270
2018-02-23T08:41:41.190Z,270
2018-02-23T08:42:41.427Z,270
2018-02-23T08:43:41.587Z,270
2018-02-23T08:44:41.306Z,270
2018-02-23T08:45:41.520Z,270
2018-02-23T08:46:41.001Z,275
2018-02-23T08:47:41.209Z,275
2018-02-23T08:48:41.175Z,275
2018-02-23T08:49:40.896Z,275
2018-02-23T08:50:40.886Z,275
2018-02-23T08:51:41.330Z,275
2018-02-23T08:52:41.071Z,285
2018-02-23T08:53:41.009Z,280
2018-02-23T08:54:40.891Z,280
2018-02-23T08:55:41.077Z,280
2018-02-23T08:56:40.659Z,280
2018-02-23T08:57:40.925Z,280
2018-02-23T08:58:41.097Z,285
2018-02-23T08:59:41.082Z,285
2018-02-23T09:00:40.776Z,285
2018-02-23T09:01:40.834Z,285
2018-02-23T09:02:40.957Z,285
2018-02-23T09:03:40.674Z,290
2018-02-23T09:04:40.641Z,290
2018-02-23T09:05:40.360Z,290
2018-02-23T09:06:40.581Z,290
2018-02-23T09:07:40.796Z,290
2018-02-23T09:08:40.519Z,290
2018-02-23T09:09:40.474Z,290
2018-02-23T09:10:41.818Z,290
2018-02-23T09:11:40.664Z,290
2018-02-23T09:12:40.537Z,290
2018-02-23T09:13:40.347Z,295
2018-02-23T09:14:40.988Z,295
2018-02-23T09:15:40.031Z,295
2018-02-23T09:16:40.478Z,295
2018-02-23T09:17:40.216Z,295
2018-02-23T09:18:40.191Z,295
2018-02-23T09:19:39.903Z,295
2018-02-23T09:20:40.120Z,295
2018-02-23T09:21:39.881Z,295
2018-02-23T09:22:40.293Z,295
2018-02-23T09:23:40.268Z,295
2018-02-23T09:24:40.282Z,295
2018-02-23T09:25:40.200Z,300
2018-02-23T09:26:39.973Z,300
2018-02-23T09:27:40.149Z,300
2018-02-23T09:28:39.854Z,300
2018-02-23T09:29:40.311Z,300
2018-02-23T09:30:40.046Z,300
2018-02-23T09:31:39.510Z,300
2018-02-23T09:32:40.390Z,300
2018-02-23T09:33:40.036Z,300
2018-02-23T09:34:39.661Z,300
2018-02-23T09:35:39.373Z,300
2018-02-23T09:36:39.586Z,305
2018-02-23T09:37:39.807Z,300
2018-02-23T09:38:39.279Z,305
2018-02-23T09:39:39.740Z,305
2018-02-23T09:40:39.460Z,305
2018-02-23T09:41:39.172Z,305
2018-02-23T09:42:39.644Z,305
2018-02-23T09:43:39.790Z,305
2018-02-23T09:44:39.323Z,310
2018-02-23T09:45:39.552Z,310
2018-02-23T09:46:39.031Z,310
2018-02-23T09:47:38.828Z,310
2018-02-23T09:48:39.191Z,310
2018-02-23T09:49:39.408Z,310
2018-02-23T09:50:39.127Z,310
2018-02-23T09:51:39.345Z,310
2018-02-23T09:52:39.370Z,310
2018-02-23T09:53:39.042Z,315
2018-02-23T09:54:38.746Z,315
2018-02-23T09:55:39.209Z,315
2018-02-23T09:56:39.194Z,315
2018-02-23T09:57:39.310Z,315
2018-02-23T09:58:39.113Z,315
2018-02-23T09:59:38.834Z,315
2018-02-23T10:00:38.552Z,320
2018-02-23T10:01:38.786Z,320
2018-02-23T10:02:38.564Z,320
2018-02-23T10:03:38.961Z,320
2018-02-23T10:04:40.399Z,320
2018-02-23T10:05:38.499Z,320
2018-02-23T10:06:38.607Z,320
2018-02-23T10:07:38.677Z,320
2018-02-23T10:08:38.295Z,320
2018-02-23T10:09:38.764Z,320
2018-02-23T10:10:38.503Z,320
2018-02-23T10:11:38.545Z,320
2018-02-23T10:12:38.666Z,320
2018-02-23T10:13:38.377Z,320
2018-02-23T10:14:38.605Z,325
2018-02-23T10:15:38.313Z,325
2018-02-23T10:16:38.438Z,325
2018-02-23T10:17:38.071Z,325
2018-02-23T10:18:37.969Z,325
2018-02-23T10:19:38.436Z,325
2018-02-23T10:20:38.412Z,325
2018-02-23T10:21:38.122Z,320
2018-02-23T10:22:38.087Z,325
2018-02-23T10:23:38.131Z,325
2018-02-23T10:24:38.276Z,325
2018-02-23T10:25:38.238Z,325
2018-02-23T10:26:38.206Z,325
2018-02-23T10:27:37.929Z,330
2018-02-23T10:28:38.143Z,330
2018-02-23T10:29:38.115Z,330
2018-02-23T10:30:38.088Z,330
2018-02-23T10:31:38.052Z,330
2018-02-23T10:32:37.772Z,330
2018-02-23T10:33:37.979Z,330
2018-02-23T10:34:37.953Z,330
2018-02-23T10:35:37.685Z,330
2018-02-23T10:36:37.889Z,330
2018-02-23T10:37:37.851Z,330
2018-02-23T10:38:37.570Z,330
2018-02-23T10:39:37.798Z,330
2018-02-23T10:40:37.769Z,330
2018-02-23T10:41:37.731Z,330
2018-02-23T10:42:37.739Z,330
2018-02-23T10:43:37.416Z,330
2018-02-23T10:44:37.507Z,335
2018-02-23T10:45:37.599Z,335
2018-02-23T10:46:37.567Z,335
2018-02-23T10:47:37.283Z,335
2018-02-23T10:48:37.505Z,335
2018-02-23T10:49:37.227Z,335
2018-02-23T10:50:37.193Z,335
2018-02-23T10:51:36.908Z,330
2018-02-23T10:52:37.129Z,330
2018-02-23T10:53:37.094Z,335
2018-02-23T10:54:37.063Z,335
2018-02-23T10:55:37.282Z,335
2018-02-23T10:56:37.243Z,335
2018-02-23T10:57:36.978Z,335
2018-02-23T10:58:38.685Z,335
2018-02-23T10:59:37.152Z,335
2018-02-23T11:00:37.128Z,335
2018-02-23T11:01:36.594Z,340
2018-02-23T11:02:37.055Z,335
2018-02-23T11:03:37.034Z,335
2018-02-23T11:04:36.992Z,340
2018-02-23T11:05:36.739Z,340
2018-02-23T11:06:36.927Z,340
2018-02-23T11:07:36.892Z,335
2018-02-23T11:08:36.619Z,340
2018-02-23T11:09:36.836Z,340
2018-02-23T11:10:36.808Z,340
2018-02-23T11:11:38.517Z,340
2018-02-23T11:12:37.652Z,340
2018-02-23T11:13:37.321Z,340
2018-02-23T11:14:37.601Z,340
2018-02-23T11:15:36.402Z,340
2018-02-23T11:16:36.414Z,340
2018-02-23T11:17:36.341Z,340
2018-02-23T11:18:36.615Z,340
2018-02-23T11:19:36.370Z,345
2018-02-23T11:20:35.988Z,340
2018-02-23T11:21:36.539Z,345
2018-02-23T11:22:35.925Z,345
2018-02-23T11:23:36.393Z,345
2018-02-23T11:24:36.116Z,345
2018-02-23T11:25:36.092Z,345
2018-02-23T11:26:36.306Z,345
2018-02-23T11:27:36.268Z,345
2018-02-23T11:28:36.229Z,345
2018-02-23T11:29:35.954Z,345
2018-02-23T11:30:35.993Z,345
2018-02-23T11:31:36.154Z,345
2018-02-23T11:32:35.857Z,345
2018-02-23T11:33:35.936Z,345
2018-02-23T11:34:36.043Z,345
2018-02-23T11:35:36.052Z,345
2018-02-23T11:36:35.985Z,345
2018-02-23T11:37:35.960Z,340
2018-02-23T11:38:35.911Z,345
2018-02-23T11:39:35.884Z,345
2018-02-23T11:40:35.852Z,345
2018-02-23T11:41:35.570Z,345
2018-02-23T11:42:35.792Z,345
2018-02-23T11:43:35.760Z,345
2018-02-23T11:44:35.637Z,345
2018-02-23T11:45:35.696Z,345
2018-02-23T11:46:35.387Z,345
2018-02-23T11:47:35.440Z,345
2018-02-23T11:48:35.601Z,345
2018-02-23T11:49:36.347Z,345
2018-02-23T11:50:35.691Z,345
2018-02-23T11:51:35.505Z,345
2018-02-23T11:52:35.227Z,345
2018-02-23T11:53:35.492Z,345
2018-02-23T11:54:34.913Z,345
2018-02-23T11:55:35.141Z,345
2018-02-23T11:56:34.854Z,345
2018-02-23T11:57:35.328Z,345
2018-02-23T11:58:35.288Z,345
2018-02-23T11:59:35.258Z,345
2018-02-23T12:00:35.233Z,345
2018-02-23T12:01:35.199Z,340
2018-02-23T12:02:35.160Z,340
2018-02-23T12:03:34.881Z,340
2018-02-23T12:04:34.855Z,340
2018-02-23T12:05:35.064Z,345
2018-02-23T12:06:35.036Z,345
2018-02-23T12:07:35.021Z,350
2018-02-23T12:08:34.983Z,345
2018-02-23T12:09:34.692Z,345
2018-02-23T12:10:34.932Z,345
2018-02-23T12:11:34.888Z,345
2018-02-23T12:12:34.597Z,345
2018-02-23T12:13:34.822Z,345
2018-02-23T12:14:34.537Z,345
2018-02-23T12:15:34.512Z,345
2018-02-23T12:16:34.477Z,350
2018-02-23T12:17:34.300Z,345
2018-02-23T12:18:34.666Z,345
2018-02-23T12:19:34.631Z,340
2018-02-23T12:20:34.351Z,340
2018-02-23T12:21:34.159Z,345
2018-02-23T12:22:34.538Z,345
2018-02-23T12:23:34.511Z,340
2018-02-23T12:24:34.480Z,340
2018-02-23T12:25:34.445Z,340
2018-02-23T12:26:34.415Z,345
2018-02-23T12:27:34.396Z,345
2018-02-23T12:28:34.153Z,340
2018-02-23T12:29:34.071Z,340
2018-02-23T12:30:34.303Z,340
2018-02-23T12:31:34.009Z,340
2018-02-23T12:32:34.280Z,340
2018-02-23T12:33:33.947Z,340
2018-02-23T12:34:33.920Z,340
2018-02-23T12:35:34.017Z,340
2018-02-23T12:36:34.114Z,340
2018-02-23T12:37:33.825Z,340
2018-02-23T12:38:34.040Z,340
2018-02-23T12:39:33.760Z,340
2018-02-23T12:40:33.979Z,340
2018-02-23T12:41:33.696Z,340
2018-02-23T12:42:33.424Z,340
2018-02-23T12:43:33.887Z,335
2018-02-23T12:44:33.636Z,335
2018-02-23T12:45:33.577Z,340
2018-02-23T12:46:33.789Z,335
2018-02-23T12:47:33.767Z,335
2018-02-23T12:48:33.487Z,335
2018-02-23T12:49:33.203Z,335
2018-02-23T12:50:33.672Z,335
2018-02-23T12:51:33.400Z,335
2018-02-23T12:52:33.604Z,335
2018-02-23T12:53:33.327Z,335
2018-02-23T12:54:32.800Z,340
2018-02-23T12:55:33.519Z,340
2018-02-23T12:56:33.490Z,335
2018-02-23T12:57:33.464Z,335
2018-02-23T12:58:33.810Z,335
2018-02-23T12:59:33.144Z,335
2018-02-23T13:00:33.365Z,335
2018-02-23T13:01:33.345Z,335
2018-02-23T13:02:33.323Z,335
2018-02-23T13:03:33.018Z,335
2018-02-23T13:04:33.237Z,335
2018-02-23T13:05:33.211Z,335
2018-02-23T13:06:33.175Z,335
2018-02-23T13:07:33.143Z,335
2018-02-23T13:08:32.870Z,335
2018-02-23T13:09:33.085Z,335
2018-02-23T13:10:32.714Z,335
2018-02-23T13:11:33.171Z,335
2018-02-23T13:12:32.987Z,335
2018-02-23T13:13:33.000Z,335
2018-02-23T13:14:33.621Z,335
2018-02-23T13:15:32.909Z,340
2018-02-23T13:16:32.882Z,340
2018-02-23T13:17:32.740Z,340
2018-02-23T13:18:32.809Z,335
2018-02-23T13:19:32.781Z,335
2018-02-23T13:20:32.497Z,335
2018-02-23T13:21:32.716Z,335
2018-02-23T13:22:32.680Z,335
2018-02-23T13:23:32.403Z,335
2018-02-23T13:24:32.616Z,335
2018-02-23T13:25:32.586Z,335
2018-02-23T13:26:32.575Z,335
2018-02-23T13:27:32.541Z,335
2018-02-23T13:28:32.541Z,335
2018-02-23T13:29:32.463Z,335
2018-02-23T13:30:32.455Z,335
2018-02-23T13:31:32.406Z,335
2018-02-23T13:32:32.374Z,335
2018-02-23T13:33:32.097Z,335
2018-02-23T13:34:32.065Z,340
2018-02-23T13:35:32.281Z,335
2018-02-23T13:36:32.321Z,335
2018-02-23T13:37:32.072Z,335
2018-02-23T13:38:31.946Z,335
2018-02-23T13:39:31.917Z,335
2018-02-23T13:40:31.884Z,335
2018-02-23T13:41:31.715Z,330
2018-02-23T13:42:32.073Z,330
2018-02-23T13:43:31.789Z,330
2018-02-23T13:44:32.014Z,330
2018-02-23T13:45:31.727Z,330
2018-02-23T13:46:31.704Z,330
2018-02-23T13:47:31.666Z,330
2018-02-23T13:48:31.882Z,330
2018-02-23T13:49:31.619Z,330
2018-02-23T13:50:31.574Z,330
2018-02-23T13:51:31.302Z,330
2018-02-23T13:52:31.439Z,330
2018-02-23T13:53:30.989Z,330
2018-02-23T13:54:31.464Z,330
2018-02-23T13:55:31.427Z,325
2018-02-23T13:56:31.149Z,325
2018-02-23T13:57:31.609Z,325
2018-02-23T13:58:31.579Z,325
2018-02-23T13:59:31.061Z,325
2018-02-23T14:00:31.528Z,325
2018-02-23T14:01:31.237Z,325
2018-02-23T14:02:31.453Z,325
2018-02-23T14:03:31.429Z,325
2018-02-23T14:04:31.157Z,325
2018-02-23T14:05:31.366Z,325
2018-02-23T14:06:31.342Z,320
2018-02-23T14:07:31.304Z,320
2018-02-23T14:08:31.274Z,320
2018-02-23T14:09:31.246Z,320
2018-02-23T14:10:31.215Z,320
2018-02-23T14:11:30.971Z,320
2018-02-23T14:12:30.900Z,320
2018-02-23T14:13:30.883Z,320